sensor_id;sensor_type;location;lat;lon;timestamp;pressure;altitude;pressure_sealevel;temperature;humidity
75549;BME280;64133;56.002;37.208;2023-04-24T00:03:13;99016.69;;;8.99;49.38
75549;BME280;64133;56.002;37.208;2023-04-24T00:08:18;99017.19;;;8.88;49.58
75549;BME280;64133;56.002;37.208;2023-04-24T00:13:22;99018.80;;;8.68;49.97
75549;BME280;64133;56.002;37.208;2023-04-24T00:18:27;99014.16;;;8.54;50.27
75549;BME280;64133;56.002;37.208;2023-04-24T00:23:31;99013.56;;;8.51;50.33
75549;BME280;64133;56.002;37.208;2023-04-24T00:28:36;99013.58;;;8.45;50.59
75549;BME280;64133;56.002;37.208;2023-04-24T00:33:41;99016.67;;;8.50;50.55
75549;BME280;64133;56.002;37.208;2023-04-24T00:38:45;99010.66;;;8.76;49.85
75549;BME280;64133;56.002;37.208;2023-04-24T00:43:50;99011.80;;;8.95;49.00
75549;BME280;64133;56.002;37.208;2023-04-24T00:48:55;99011.45;;;8.94;49.13
75549;BME280;64133;56.002;37.208;2023-04-24T00:53:59;99007.05;;;8.89;49.32
75549;BME280;64133;56.002;37.208;2023-04-24T01:04:17;99002.31;;;9.09;48.09
75549;BME280;64133;56.002;37.208;2023-04-24T01:09:22;99006.52;;;9.06;47.76
75549;BME280;64133;56.002;37.208;2023-04-24T01:14:27;99004.27;;;9.01;47.70
75549;BME280;64133;56.002;37.208;2023-04-24T01:19:32;99008.77;;;9.11;47.33
75549;BME280;64133;56.002;37.208;2023-04-24T01:24:37;99003.66;;;9.03;47.32
75549;BME280;64133;56.002;37.208;2023-04-24T01:29:41;98995.66;;;8.99;47.24
75549;BME280;64133;56.002;37.208;2023-04-24T01:34:46;98998.56;;;8.91;47.50
75549;BME280;64133;56.002;37.208;2023-04-24T01:39:54;99000.22;;;8.92;47.45
75549;BME280;64133;56.002;37.208;2023-04-24T01:44:59;99003.78;;;8.96;47.16
75549;BME280;64133;56.002;37.208;2023-04-24T01:50:04;98993.66;;;8.97;46.96
75549;BME280;64133;56.002;37.208;2023-04-24T01:55:10;98992.34;;;8.92;47.08
75549;BME280;64133;56.002;37.208;2023-04-24T02:00:15;98995.71;;;8.83;47.30
75549;BME280;64133;56.002;37.208;2023-04-24T02:05:20;98989.50;;;8.84;47.34
75549;BME280;64133;56.002;37.208;2023-04-24T02:10:25;98985.69;;;8.82;47.36
75549;BME280;64133;56.002;37.208;2023-04-24T02:15:29;98994.42;;;8.77;47.49
75549;BME280;64133;56.002;37.208;2023-04-24T02:20:34;98990.00;;;8.77;47.60
75549;BME280;64133;56.002;37.208;2023-04-24T02:25:38;98997.74;;;8.79;47.64
75549;BME280;64133;56.002;37.208;2023-04-24T02:30:43;98991.42;;;8.81;47.98
75549;BME280;64133;56.002;37.208;2023-04-24T02:35:48;98999.52;;;8.90;47.74
75549;BME280;64133;56.002;37.208;2023-04-24T02:40:52;99002.78;;;8.76;49.08
75549;BME280;64133;56.002;37.208;2023-04-24T02:45:57;99006.92;;;8.90;48.99
75549;BME280;64133;56.002;37.208;2023-04-24T02:51:03;99009.63;;;9.00;48.86
75549;BME280;64133;56.002;37.208;2023-04-24T02:56:06;99010.37;;;9.23;48.22
75549;BME280;64133;56.002;37.208;2023-04-24T03:01:11;99016.73;;;9.47;48.03
75549;BME280;64133;56.002;37.208;2023-04-24T03:06:16;99024.64;;;9.68;47.85
75549;BME280;64133;56.002;37.208;2023-04-24T03:11:20;99023.00;;;10.34;46.51
75549;BME280;64133;56.002;37.208;2023-04-24T03:16:25;99019.28;;;12.16;43.97
75549;BME280;64133;56.002;37.208;2023-04-24T03:21:30;99017.37;;;19.36;33.69
75549;BME280;64133;56.002;37.208;2023-04-24T03:26:34;99021.38;;;23.40;27.53
75549;BME280;64133;56.002;37.208;2023-04-24T03:31:39;99022.99;;;25.15;25.17
75549;BME280;64133;56.002;37.208;2023-04-24T03:36:44;99023.09;;;25.38;23.47
75549;BME280;64133;56.002;37.208;2023-04-24T03:41:48;99024.76;;;26.92;21.79
75549;BME280;64133;56.002;37.208;2023-04-24T03:46:53;99033.15;;;28.51;20.25
75549;BME280;64133;56.002;37.208;2023-04-24T03:51:57;99031.47;;;29.11;19.01
75549;BME280;64133;56.002;37.208;2023-04-24T03:57:02;99035.25;;;30.75;17.28
75549;BME280;64133;56.002;37.208;2023-04-24T04:02:07;99038.25;;;30.82;16.74
75549;BME280;64133;56.002;37.208;2023-04-24T04:07:12;99044.42;;;30.19;16.87
75549;BME280;64133;56.002;37.208;2023-04-24T04:12:16;99046.66;;;32.14;15.38
75549;BME280;64133;56.002;37.208;2023-04-24T04:17:21;99048.78;;;33.20;14.41
75549;BME280;64133;56.002;37.208;2023-04-24T04:22:26;99051.69;;;32.77;14.20
75549;BME280;64133;56.002;37.208;2023-04-24T04:27:30;99059.34;;;33.35;13.78
75549;BME280;64133;56.002;37.208;2023-04-24T04:32:35;99058.14;;;33.56;13.13
75549;BME280;64133;56.002;37.208;2023-04-24T04:37:40;99052.70;;;34.75;12.27
75549;BME280;64133;56.002;37.208;2023-04-24T04:42:44;99059.88;;;34.42;12.53
75549;BME280;64133;56.002;37.208;2023-04-24T04:47:49;99059.03;;;35.72;11.77
75549;BME280;64133;56.002;37.208;2023-04-24T04:52:54;99063.69;;;36.67;10.78
75549;BME280;64133;56.002;37.208;2023-04-24T04:57:58;99067.30;;;36.79;10.76
75549;BME280;64133;56.002;37.208;2023-04-24T05:03:03;99066.83;;;37.52;10.17
75549;BME280;64133;56.002;37.208;2023-04-24T05:08:08;99074.99;;;37.91;10.04
75549;BME280;64133;56.002;37.208;2023-04-24T05:13:13;99065.63;;;40.33;8.43
75549;BME280;64133;56.002;37.208;2023-04-24T05:18:17;99069.13;;;40.51;8.26
75549;BME280;64133;56.002;37.208;2023-04-24T05:23:22;99070.60;;;41.01;7.73
75549;BME280;64133;56.002;37.208;2023-04-24T05:28:26;99069.20;;;40.57;7.90
75549;BME280;64133;56.002;37.208;2023-04-24T05:33:32;99075.75;;;41.95;7.17
75549;BME280;64133;56.002;37.208;2023-04-24T05:38:37;99073.59;;;43.88;6.11
75549;BME280;64133;56.002;37.208;2023-04-24T05:43:41;99072.48;;;44.84;5.62
75549;BME280;64133;56.002;37.208;2023-04-24T05:48:46;99067.05;;;43.46;6.05
75549;BME280;64133;56.002;37.208;2023-04-24T05:53:51;99070.77;;;45.21;5.18
75549;BME280;64133;56.002;37.208;2023-04-24T05:58:56;99069.88;;;41.49;6.56
75549;BME280;64133;56.002;37.208;2023-04-24T06:04:02;99071.84;;;44.81;5.29
75549;BME280;64133;56.002;37.208;2023-04-24T06:09:09;99067.91;;;43.10;5.84
75549;BME280;64133;56.002;37.208;2023-04-24T06:14:15;99065.51;;;45.25;4.93
75549;BME280;64133;56.002;37.208;2023-04-24T06:19:30;99069.19;;;41.73;6.22
75549;BME280;64133;56.002;37.208;2023-04-24T06:24:34;99064.75;;;44.93;5.19
75549;BME280;64133;56.002;37.208;2023-04-24T06:29:39;99070.14;;;45.66;4.77
75549;BME280;64133;56.002;37.208;2023-04-24T06:34:46;99068.33;;;46.06;4.57
75549;BME280;64133;56.002;37.208;2023-04-24T06:39:51;99073.11;;;46.61;4.29
75549;BME280;64133;56.002;37.208;2023-04-24T06:44:55;99078.42;;;45.53;4.43
75549;BME280;64133;56.002;37.208;2023-04-24T06:50:00;99068.87;;;44.89;4.59
75549;BME280;64133;56.002;37.208;2023-04-24T06:55:06;99068.75;;;45.66;4.36
75549;BME280;64133;56.002;37.208;2023-04-24T07:00:13;99079.50;;;46.75;3.94
75549;BME280;64133;56.002;37.208;2023-04-24T07:05:18;99071.86;;;48.74;3.09
75549;BME280;64133;56.002;37.208;2023-04-24T07:10:24;99075.75;;;45.31;4.02
75549;BME280;64133;56.002;37.208;2023-04-24T07:15:29;99077.09;;;44.29;4.25
75549;BME280;64133;56.002;37.208;2023-04-24T07:20:33;99085.80;;;46.36;3.53
75549;BME280;64133;56.002;37.208;2023-04-24T07:25:38;99080.09;;;39.89;5.57
75549;BME280;64133;56.002;37.208;2023-04-24T07:30:43;99086.78;;;38.25;6.11
75549;BME280;64133;56.002;37.208;2023-04-24T07:35:47;99073.31;;;35.88;7.20
75549;BME280;64133;56.002;37.208;2023-04-24T07:40:52;99076.86;;;36.54;7.22
75549;BME280;64133;56.002;37.208;2023-04-24T07:45:56;99074.75;;;36.18;7.19
75549;BME280;64133;56.002;37.208;2023-04-24T07:51:01;99071.73;;;38.54;6.14
75549;BME280;64133;56.002;37.208;2023-04-24T07:56:06;99070.89;;;37.05;6.82
75549;BME280;64133;56.002;37.208;2023-04-24T08:01:11;99070.69;;;37.40;7.05
75549;BME280;64133;56.002;37.208;2023-04-24T08:06:16;99070.45;;;36.12;7.25
75549;BME280;64133;56.002;37.208;2023-04-24T08:11:20;99064.17;;;34.21;8.38
75549;BME280;64133;56.002;37.208;2023-04-24T08:16:25;99064.60;;;35.08;7.96
75549;BME280;64133;56.002;37.208;2023-04-24T08:21:29;99061.03;;;39.73;5.92
75549;BME280;64133;56.002;37.208;2023-04-24T08:31:39;99050.89;;;38.50;5.92
75549;BME280;64133;56.002;37.208;2023-04-24T08:36:43;99069.42;;;38.87;5.50
75549;BME280;64133;56.002;37.208;2023-04-24T08:41:48;99053.86;;;29.25;9.45
75549;BME280;64133;56.002;37.208;2023-04-24T08:46:53;99049.64;;;28.91;10.07
75549;BME280;64133;56.002;37.208;2023-04-24T08:51:57;99044.14;;;26.74;11.31
75549;BME280;64133;56.002;37.208;2023-04-24T08:57:03;99042.16;;;25.88;12.23
75549;BME280;64133;56.002;37.208;2023-04-24T09:02:08;99043.23;;;26.10;12.18
75549;BME280;64133;56.002;37.208;2023-04-24T09:07:12;99033.95;;;28.13;11.43
75549;BME280;64133;56.002;37.208;2023-04-24T09:12:17;99020.24;;;27.86;11.42
75549;BME280;64133;56.002;37.208;2023-04-24T09:17:22;99018.03;;;26.54;12.70
75549;BME280;64133;56.002;37.208;2023-04-24T09:22:27;99011.55;;;28.00;11.83
75549;BME280;64133;56.002;37.208;2023-04-24T09:27:32;99014.00;;;26.68;12.62
75549;BME280;64133;56.002;37.208;2023-04-24T09:32:37;99018.64;;;27.25;12.33
75549;BME280;64133;56.002;37.208;2023-04-24T09:37:42;98998.18;;;26.60;12.76
75549;BME280;64133;56.002;37.208;2023-04-24T09:42:53;98995.59;;;26.53;12.71
75549;BME280;64133;56.002;37.208;2023-04-24T09:47:56;98983.44;;;27.08;12.61
75549;BME280;64133;56.002;37.208;2023-04-24T09:53:02;98981.09;;;26.71;12.70
75549;BME280;64133;56.002;37.208;2023-04-24T09:58:07;98974.52;;;24.87;13.86
75549;BME280;64133;56.002;37.208;2023-04-24T10:03:11;98968.71;;;26.35;13.30
75549;BME280;64133;56.002;37.208;2023-04-24T10:08:16;98966.20;;;28.32;12.15
75549;BME280;64133;56.002;37.208;2023-04-24T10:13:20;98966.67;;;29.17;12.01
75549;BME280;64133;56.002;37.208;2023-04-24T10:23:39;98963.58;;;30.49;10.88
75549;BME280;64133;56.002;37.208;2023-04-24T10:28:45;98955.01;;;30.20;10.57
75549;BME280;64133;56.002;37.208;2023-04-24T10:33:50;98968.78;;;27.06;12.28
75549;BME280;64133;56.002;37.208;2023-04-24T10:38:54;98964.21;;;26.15;13.06
75549;BME280;64133;56.002;37.208;2023-04-24T10:44:09;98933.41;;;29.26;11.24
75549;BME280;64133;56.002;37.208;2023-04-24T10:49:14;98949.34;;;30.29;10.61
75549;BME280;64133;56.002;37.208;2023-04-24T10:54:26;98939.89;;;26.78;11.98
75549;BME280;64133;56.002;37.208;2023-04-24T10:59:34;98939.98;;;26.43;12.34
75549;BME280;64133;56.002;37.208;2023-04-24T11:04:35;98926.39;;;25.02;13.48
75549;BME280;64133;56.002;37.208;2023-04-24T11:09:44;98934.87;;;24.67;14.25
75549;BME280;64133;56.002;37.208;2023-04-24T11:20:23;98921.96;;;23.33;15.55
75549;BME280;64133;56.002;37.208;2023-04-24T11:25:28;98917.84;;;24.27;14.88
75549;BME280;64133;56.002;37.208;2023-04-24T11:30:32;98923.80;;;23.33;15.34
75549;BME280;64133;56.002;37.208;2023-04-24T11:35:44;98920.66;;;23.11;15.51
75549;BME280;64133;56.002;37.208;2023-04-24T11:40:54;98904.98;;;21.76;16.49
75549;BME280;64133;56.002;37.208;2023-04-24T11:46:00;98894.86;;;22.27;16.16
75549;BME280;64133;56.002;37.208;2023-04-24T11:51:05;98890.48;;;23.93;15.08
75549;BME280;64133;56.002;37.208;2023-04-24T11:56:10;98875.53;;;23.79;15.28
75549;BME280;64133;56.002;37.208;2023-04-24T12:01:15;98879.83;;;23.37;15.63
75549;BME280;64133;56.002;37.208;2023-04-24T12:06:20;98875.30;;;23.12;15.93
75549;BME280;64133;56.002;37.208;2023-04-24T12:11:24;98877.34;;;22.11;16.80
75549;BME280;64133;56.002;37.208;2023-04-24T12:16:29;98871.32;;;22.67;16.43
75549;BME280;64133;56.002;37.208;2023-04-24T12:21:34;98870.33;;;22.10;16.68
75549;BME280;64133;56.002;37.208;2023-04-24T12:26:41;98874.92;;;21.07;17.48
75549;BME280;64133;56.002;37.208;2023-04-24T12:31:43;98857.29;;;21.49;17.33
75549;BME280;64133;56.002;37.208;2023-04-24T12:36:48;98857.00;;;22.64;16.96
75549;BME280;64133;56.002;37.208;2023-04-24T12:41:56;98850.08;;;22.81;16.55
75549;BME280;64133;56.002;37.208;2023-04-24T12:47:01;98864.27;;;22.95;16.29
75549;BME280;64133;56.002;37.208;2023-04-24T12:52:06;98845.20;;;21.98;16.92
75549;BME280;64133;56.002;37.208;2023-04-24T12:57:10;98844.41;;;22.20;16.92
75549;BME280;64133;56.002;37.208;2023-04-24T13:02:15;98825.31;;;22.41;16.96
75549;BME280;64133;56.002;37.208;2023-04-24T13:07:21;98838.88;;;22.84;16.62
75549;BME280;64133;56.002;37.208;2023-04-24T13:12:25;98827.37;;;22.93;16.66
75549;BME280;64133;56.002;37.208;2023-04-24T13:17:30;98828.16;;;22.69;16.72
75549;BME280;64133;56.002;37.208;2023-04-24T13:22:35;98830.23;;;22.13;17.14
75549;BME280;64133;56.002;37.208;2023-04-24T13:27:40;98822.02;;;21.94;17.29
75549;BME280;64133;56.002;37.208;2023-04-24T13:32:44;98823.02;;;21.71;17.51
75549;BME280;64133;56.002;37.208;2023-04-24T13:37:49;98816.38;;;21.87;17.66
75549;BME280;64133;56.002;37.208;2023-04-24T13:42:54;98815.57;;;22.02;17.43
75549;BME280;64133;56.002;37.208;2023-04-24T13:47:58;98809.30;;;20.94;18.11
75549;BME280;64133;56.002;37.208;2023-04-24T13:53:04;98804.26;;;20.45;18.59
75549;BME280;64133;56.002;37.208;2023-04-24T13:58:08;98789.92;;;20.92;18.38
75549;BME280;64133;56.002;37.208;2023-04-24T14:03:13;98785.06;;;21.31;18.03
75549;BME280;64133;56.002;37.208;2023-04-24T14:08:18;98776.82;;;21.06;18.00
75549;BME280;64133;56.002;37.208;2023-04-24T14:13:22;98782.78;;;21.15;18.03
75549;BME280;64133;56.002;37.208;2023-04-24T14:18:27;98780.66;;;20.68;18.54
75549;BME280;64133;56.002;37.208;2023-04-24T14:23:32;98782.39;;;20.52;18.55
75549;BME280;64133;56.002;37.208;2023-04-24T14:28:36;98777.23;;;20.13;18.94
75549;BME280;64133;56.002;37.208;2023-04-24T14:33:41;98778.40;;;19.91;19.16
75549;BME280;64133;56.002;37.208;2023-04-24T14:38:46;98776.95;;;19.64;19.48
75549;BME280;64133;56.002;37.208;2023-04-24T14:43:50;98772.86;;;19.68;19.55
75549;BME280;64133;56.002;37.208;2023-04-24T14:48:55;98775.50;;;19.86;19.38
75549;BME280;64133;56.002;37.208;2023-04-24T14:54:00;98768.31;;;19.86;19.44
75549;BME280;64133;56.002;37.208;2023-04-24T14:59:05;98767.41;;;19.90;19.41
75549;BME280;64133;56.002;37.208;2023-04-24T15:04:09;98767.48;;;19.86;19.48
75549;BME280;64133;56.002;37.208;2023-04-24T15:09:14;98763.91;;;19.72;19.61
75549;BME280;64133;56.002;37.208;2023-04-24T15:14:19;98761.61;;;19.62;19.75
75549;BME280;64133;56.002;37.208;2023-04-24T15:19:24;98757.33;;;19.50;19.86
75549;BME280;64133;56.002;37.208;2023-04-24T15:24:28;98755.90;;;19.37;20.00
75549;BME280;64133;56.002;37.208;2023-04-24T15:29:33;98753.28;;;19.26;20.09
75549;BME280;64133;56.002;37.208;2023-04-24T15:34:38;98756.11;;;19.18;20.22
75549;BME280;64133;56.002;37.208;2023-04-24T15:39:43;98747.22;;;19.11;20.35
75549;BME280;64133;56.002;37.208;2023-04-24T15:44:47;98748.55;;;19.11;20.54
75549;BME280;64133;56.002;37.208;2023-04-24T15:49:55;98746.16;;;19.05;20.44
75549;BME280;64133;56.002;37.208;2023-04-24T15:55:02;98747.92;;;18.92;20.55
75549;BME280;64133;56.002;37.208;2023-04-24T16:00:08;98742.17;;;18.77;20.61
75549;BME280;64133;56.002;37.208;2023-04-24T16:05:13;98749.84;;;18.66;20.85
75549;BME280;64133;56.002;37.208;2023-04-24T16:10:18;98753.80;;;18.59;21.02
75549;BME280;64133;56.002;37.208;2023-04-24T16:15:22;98746.24;;;18.52;21.12
75549;BME280;64133;56.002;37.208;2023-04-24T16:20:27;98748.48;;;18.38;21.36
75549;BME280;64133;56.002;37.208;2023-04-24T16:25:32;98745.17;;;18.25;21.34
75549;BME280;64133;56.002;37.208;2023-04-24T16:30:37;98746.89;;;18.11;21.52
75549;BME280;64133;56.002;37.208;2023-04-24T16:35:42;98749.02;;;17.90;21.75
75549;BME280;64133;56.002;37.208;2023-04-24T16:40:49;98748.66;;;17.78;21.90
75549;BME280;64133;56.002;37.208;2023-04-24T16:45:52;98748.67;;;17.64;22.21
75549;BME280;64133;56.002;37.208;2023-04-24T16:50:56;98751.72;;;17.46;22.32
75549;BME280;64133;56.002;37.208;2023-04-24T16:56:01;98758.17;;;17.32;22.58
75549;BME280;64133;56.002;37.208;2023-04-24T17:01:06;98752.81;;;17.07;22.86
75549;BME280;64133;56.002;37.208;2023-04-24T17:06:11;98749.45;;;16.94;23.15
75549;BME280;64133;56.002;37.208;2023-04-24T17:11:15;98760.05;;;16.79;23.45
75549;BME280;64133;56.002;37.208;2023-04-24T17:16:20;98768.57;;;16.71;23.60
75549;BME280;64133;56.002;37.208;2023-04-24T17:21:25;98770.06;;;16.54;23.82
75549;BME280;64133;56.002;37.208;2023-04-24T17:26:30;98770.56;;;16.50;23.89
75549;BME280;64133;56.002;37.208;2023-04-24T17:31:35;98772.65;;;16.40;23.96
75549;BME280;64133;56.002;37.208;2023-04-24T17:36:42;98773.20;;;16.31;24.10
75549;BME280;64133;56.002;37.208;2023-04-24T17:41:47;98775.28;;;16.21;24.17
75549;BME280;64133;56.002;37.208;2023-04-24T17:46:52;98779.68;;;16.05;24.44
75549;BME280;64133;56.002;37.208;2023-04-24T17:51:57;98789.52;;;15.97;24.79
75549;BME280;64133;56.002;37.208;2023-04-24T18:02:18;98794.53;;;15.92;24.90
75549;BME280;64133;56.002;37.208;2023-04-24T18:07:22;98804.05;;;15.82;25.02
75549;BME280;64133;56.002;37.208;2023-04-24T18:12:27;98801.25;;;15.75;25.16
75549;BME280;64133;56.002;37.208;2023-04-24T18:17:32;98810.24;;;15.58;25.57
75549;BME280;64133;56.002;37.208;2023-04-24T18:22:37;98805.52;;;15.37;25.93
75549;BME280;64133;56.002;37.208;2023-04-24T18:27:41;98810.02;;;15.28;26.02
75549;BME280;64133;56.002;37.208;2023-04-24T18:32:46;98817.81;;;15.18;26.32
75549;BME280;64133;56.002;37.208;2023-04-24T18:37:51;98822.63;;;15.18;26.46
75549;BME280;64133;56.002;37.208;2023-04-24T18:42:56;98824.63;;;15.20;26.64
75549;BME280;64133;56.002;37.208;2023-04-24T18:48:00;98821.80;;;15.22;26.55
75549;BME280;64133;56.002;37.208;2023-04-24T18:53:05;98820.66;;;15.16;26.84
75549;BME280;64133;56.002;37.208;2023-04-24T18:58:09;98826.61;;;15.10;26.92
75549;BME280;64133;56.002;37.208;2023-04-24T19:03:14;98833.25;;;15.06;27.11
75549;BME280;64133;56.002;37.208;2023-04-24T19:08:19;98827.11;;;15.09;27.22
75549;BME280;64133;56.002;37.208;2023-04-24T19:13:23;98830.59;;;15.10;27.28
75549;BME280;64133;56.002;37.208;2023-04-24T19:18:28;98833.60;;;15.07;27.37
75549;BME280;64133;56.002;37.208;2023-04-24T19:23:33;98835.25;;;15.04;27.41
75549;BME280;64133;56.002;37.208;2023-04-24T19:28:38;98836.25;;;15.03;27.52
75549;BME280;64133;56.002;37.208;2023-04-24T19:33:42;98838.23;;;15.05;27.54
75549;BME280;64133;56.002;37.208;2023-04-24T19:38:47;98837.73;;;15.05;27.61
75549;BME280;64133;56.002;37.208;2023-04-24T19:43:52;98831.09;;;15.05;27.74
75549;BME280;64133;56.002;37.208;2023-04-24T19:48:57;98833.09;;;15.12;27.67
75549;BME280;64133;56.002;37.208;2023-04-24T19:54:02;98829.61;;;15.15;27.70
75549;BME280;64133;56.002;37.208;2023-04-24T19:59:07;98830.76;;;15.21;27.68
75549;BME280;64133;56.002;37.208;2023-04-24T20:04:11;98822.30;;;15.21;27.75
75549;BME280;64133;56.002;37.208;2023-04-24T20:09:16;98823.30;;;15.24;27.89
75549;BME280;64133;56.002;37.208;2023-04-24T20:14:22;98810.49;;;15.28;27.94
75549;BME280;64133;56.002;37.208;2023-04-24T20:19:27;98817.47;;;15.33;27.95
75549;BME280;64133;56.002;37.208;2023-04-24T20:24:32;98819.77;;;15.36;27.88
75549;BME280;64133;56.002;37.208;2023-04-24T20:29:37;98821.28;;;15.30;28.02
75549;BME280;64133;56.002;37.208;2023-04-24T20:34:41;98816.80;;;15.27;28.06
75549;BME280;64133;56.002;37.208;2023-04-24T20:39:46;98823.30;;;15.24;28.01
75549;BME280;64133;56.002;37.208;2023-04-24T20:44:50;98827.29;;;15.12;28.09
75549;BME280;64133;56.002;37.208;2023-04-24T20:49:55;98834.11;;;14.98;28.30
75549;BME280;64133;56.002;37.208;2023-04-24T20:55:00;98831.77;;;14.83;28.61
75549;BME280;64133;56.002;37.208;2023-04-24T21:00:06;98832.45;;;14.77;29.04
75549;BME280;64133;56.002;37.208;2023-04-24T21:05:11;98837.75;;;14.69;29.63
75549;BME280;64133;56.002;37.208;2023-04-24T21:10:16;98765.94;;;14.21;29.82
75549;BME280;64133;56.002;37.208;2023-04-24T21:15:20;98842.22;;;14.64;29.55
75549;BME280;64133;56.002;37.208;2023-04-24T21:20:25;98843.03;;;14.56;30.02
75549;BME280;64133;56.002;37.208;2023-04-24T21:25:30;98835.08;;;14.56;29.94
75549;BME280;64133;56.002;37.208;2023-04-24T21:30:34;98835.25;;;14.55;29.93
75549;BME280;64133;56.002;37.208;2023-04-24T21:35:39;98835.06;;;14.48;30.18
75549;BME280;64133;56.002;37.208;2023-04-24T21:40:44;98831.38;;;14.45;30.21
75549;BME280;64133;56.002;37.208;2023-04-24T21:45:48;98832.38;;;14.44;30.25
75549;BME280;64133;56.002;37.208;2023-04-24T21:50:53;98825.93;;;14.47;30.29
75549;BME280;64133;56.002;37.208;2023-04-24T21:55:57;98832.59;;;14.51;30.30
75549;BME280;64133;56.002;37.208;2023-04-24T22:01:02;98838.05;;;14.53;30.19
75549;BME280;64133;56.002;37.208;2023-04-24T22:06:07;98821.13;;;14.46;30.34
75549;BME280;64133;56.002;37.208;2023-04-24T22:11:12;98826.73;;;14.39;30.63
75549;BME280;64133;56.002;37.208;2023-04-24T22:16:16;98829.70;;;14.32;30.58
75549;BME280;64133;56.002;37.208;2023-04-24T22:21:21;98833.19;;;14.24;30.81
75549;BME280;64133;56.002;37.208;2023-04-24T22:26:26;98827.86;;;14.16;31.21
75549;BME280;64133;56.002;37.208;2023-04-24T22:31:31;98816.74;;;14.08;31.37
75549;BME280;64133;56.002;37.208;2023-04-24T22:36:35;98817.52;;;13.97;31.53
75549;BME280;64133;56.002;37.208;2023-04-24T22:41:40;98814.13;;;13.70;31.96
75549;BME280;64133;56.002;37.208;2023-04-24T22:46:44;98820.00;;;13.52;32.30
75549;BME280;64133;56.002;37.208;2023-04-24T22:51:49;98814.48;;;13.37;32.65
75549;BME280;64133;56.002;37.208;2023-04-24T22:56:54;98819.83;;;13.23;33.00
75549;BME280;64133;56.002;37.208;2023-04-24T23:01:58;98805.85;;;13.13;33.11
75549;BME280;64133;56.002;37.208;2023-04-24T23:07:03;98806.63;;;13.05;33.31
75549;BME280;64133;56.002;37.208;2023-04-24T23:12:08;98803.34;;;13.07;33.25
75549;BME280;64133;56.002;37.208;2023-04-24T23:17:12;98805.27;;;13.01;33.37
75549;BME280;64133;56.002;37.208;2023-04-24T23:22:17;98811.75;;;13.03;33.13
75549;BME280;64133;56.002;37.208;2023-04-24T23:27:21;98811.36;;;12.94;33.33
75549;BME280;64133;56.002;37.208;2023-04-24T23:32:26;98803.63;;;12.78;34.04
75549;BME280;64133;56.002;37.208;2023-04-24T23:37:31;98807.28;;;12.60;34.39
75549;BME280;64133;56.002;37.208;2023-04-24T23:42:35;98801.62;;;12.54;34.63
75549;BME280;64133;56.002;37.208;2023-04-24T23:47:40;98798.30;;;12.52;34.31
75549;BME280;64133;56.002;37.208;2023-04-24T23:52:45;98801.68;;;12.41;34.94
75549;BME280;64133;56.002;37.208;2023-04-24T23:57:49;98794.42;;;12.43;34.93
